Time,TemperatureF,DewpointF,PressureIn,WindDirection,WindDirectionDegrees,WindSpeedMPH,WindSpeedGustMPH,Humidity,HourlyPrecipIn,Conditions,Clouds,dailyrainin,SoftwareType,DateUTC
2013-02-20 00:01:00,4.0,-11.0,-100.00,SE,140,4.0,11.0,50,-99.99,,,-99.99,,2013-02-20 06:01:00,
2013-02-20 00:11:00,4.0,-11.0,-100.00,SE,140,4.0,11.0,50,-99.99,,,-99.99,,2013-02-20 06:11:00,
2013-02-20 00:42:00,3.0,-10.0,-100.00,SSE,155,4.0,11.0,53,-99.99,,,-99.99,,2013-02-20 06:42:00,
2013-02-20 00:52:00,3.0,-10.0,-100.00,SSE,155,4.0,11.0,53,-99.99,,,-99.99,,2013-02-20 06:52:00,
2013-02-20 01:01:00,3.0,-10.0,-100.00,SSE,155,4.0,11.0,53,-99.99,,,-99.99,,2013-02-20 07:01:00,
2013-02-20 01:11:00,3.0,-10.0,-100.00,SSE,155,4.0,11.0,53,-99.99,,,-99.99,,2013-02-20 07:11:00,
2013-02-20 01:42:00,2.0,-10.0,-100.00,SE,145,4.0,11.0,56,-99.99,,,-99.99,,2013-02-20 07:42:00,
2013-02-20 01:52:00,2.0,-10.0,-100.00,SE,145,4.0,11.0,56,-99.99,,,-99.99,,2013-02-20 07:52:00,
2013-02-20 02:05:00,2.0,-10.0,-100.00,SE,145,4.0,11.0,56,-99.99,,,-99.99,,2013-02-20 08:05:00,
2013-02-20 02:11:00,2.0,-10.0,-100.00,SE,145,4.0,11.0,56,-99.99,,,-99.99,,2013-02-20 08:11:00,
2013-02-20 02:42:00,2.0,-9.0,-100.00,SE,145,4.0,12.0,59,-99.99,,,-99.99,,2013-02-20 08:42:00,
2013-02-20 02:52:00,2.0,-9.0,-100.00,SE,145,4.0,12.0,59,-99.99,,,-99.99,,2013-02-20 08:52:00,
2013-02-20 03:01:00,2.0,-9.0,-100.00,SE,145,4.0,12.0,59,-99.99,,,-99.99,,2013-02-20 09:01:00,
2013-02-20 03:11:00,2.0,-9.0,-100.00,SE,145,4.0,12.0,59,-99.99,,,-99.99,,2013-02-20 09:11:00,
2013-02-20 03:42:00,2.0,-8.0,-100.00,SSE,150,6.0,13.0,62,-99.99,,,-99.99,,2013-02-20 09:42:00,
2013-02-20 03:52:00,2.0,-8.0,-100.00,SSE,150,6.0,13.0,62,-99.99,,,-99.99,,2013-02-20 09:52:00,
2013-02-20 04:01:00,2.0,-8.0,-100.00,SSE,150,6.0,13.0,62,-99.99,,,-99.99,,2013-02-20 10:01:00,
2013-02-20 04:12:00,2.0,-8.0,-100.00,SSE,150,6.0,13.0,62,-99.99,,,-99.99,,2013-02-20 10:12:00,
2013-02-20 04:42:00,2.0,-7.0,-100.00,SSE,150,6.0,11.0,64,-99.99,,,-99.99,,2013-02-20 10:42:00,
2013-02-20 04:52:00,2.0,-7.0,-100.00,SSE,150,6.0,11.0,64,-99.99,,,-99.99,,2013-02-20 10:52:00,
2013-02-20 05:02:00,2.0,-7.0,-100.00,SSE,150,6.0,11.0,64,-99.99,,,-99.99,,2013-02-20 11:02:00,
2013-02-20 05:11:00,2.0,-7.0,-100.00,SSE,150,6.0,11.0,64,-99.99,,,-99.99,,2013-02-20 11:11:00,
2013-02-20 05:42:00,1.0,-7.0,-100.00,SE,135,4.0,9.0,67,-99.99,,,-99.99,,2013-02-20 11:42:00,
2013-02-20 05:52:00,1.0,-7.0,-100.00,SE,135,4.0,9.0,67,-99.99,,,-99.99,,2013-02-20 11:52:00,
2013-02-20 06:02:00,1.0,-7.0,-100.00,SE,135,4.0,9.0,67,-99.99,,,-99.99,,2013-02-20 12:02:00,
2013-02-20 06:12:00,1.0,-7.0,-100.00,SE,135,4.0,9.0,67,-99.99,,,-99.99,,2013-02-20 12:12:00,
2013-02-20 06:42:00,2.0,-6.0,-100.00,South,170,4.0,9.0,69,-99.99,,,-99.99,,2013-02-20 12:42:00,
2013-02-20 06:53:00,2.0,-6.0,-100.00,South,170,4.0,9.0,69,-99.99,,,-99.99,,2013-02-20 12:53:00,
2013-02-20 07:01:00,2.0,-6.0,-100.00,South,170,4.0,9.0,69,-99.99,,,-99.99,,2013-02-20 13:01:00,
2013-02-20 07:11:00,2.0,-6.0,-100.00,South,170,4.0,9.0,69,-99.99,,,-99.99,,2013-02-20 13:11:00,
2013-02-20 07:42:00,4.0,-4.0,-100.00,South,180,6.0,9.0,71,-99.99,,,-99.99,,2013-02-20 13:42:00,
2013-02-20 07:52:00,4.0,-4.0,-100.00,South,180,6.0,9.0,71,-99.99,,,-99.99,,2013-02-20 13:52:00,
2013-02-20 08:01:00,4.0,-4.0,-100.00,South,180,6.0,9.0,71,-99.99,,,-99.99,,2013-02-20 14:01:00,
2013-02-20 08:11:00,4.0,-4.0,-100.00,South,180,6.0,9.0,71,-99.99,,,-99.99,,2013-02-20 14:11:00,
2013-02-20 08:42:00,7.0,-1.0,-100.00,SSE,160,3.0,12.0,68,-99.99,,,-99.99,,2013-02-20 14:42:00,
2013-02-20 08:52:00,7.0,-1.0,-100.00,SSE,160,3.0,12.0,68,-99.99,,,-99.99,,2013-02-20 14:52:00,
2013-02-20 09:01:00,7.0,-1.0,-100.00,SSE,160,3.0,12.0,68,-99.99,,,-99.99,,2013-02-20 15:01:00,
2013-02-20 09:11:00,7.0,-1.0,-100.00,SSE,160,3.0,12.0,68,-99.99,,,-99.99,,2013-02-20 15:11:00,
2013-02-20 09:42:00,12.0,1.0,-100.00,SW,215,6.0,14.0,59,-99.99,,,-99.99,,2013-02-20 15:42:00,
2013-02-20 09:52:00,12.0,1.0,-100.00,SW,215,6.0,14.0,59,-99.99,,,-99.99,,2013-02-20 15:52:00,
2013-02-20 10:01:00,12.0,1.0,-100.00,SW,215,6.0,14.0,59,-99.99,,,-99.99,,2013-02-20 16:01:00,
2013-02-20 10:12:00,12.0,1.0,-100.00,SW,215,6.0,14.0,59,-99.99,,,-99.99,,2013-02-20 16:12:00,
2013-02-20 10:42:00,16.0,-1.0,-100.00,SSW,195,7.0,16.0,47,-99.99,,,-99.99,,2013-02-20 16:42:00,
2013-02-20 10:52:00,16.0,-1.0,-100.00,SSW,195,7.0,16.0,47,-99.99,,,-99.99,,2013-02-20 16:52:00,
2013-02-20 11:01:00,16.0,-1.0,-100.00,SSW,195,7.0,16.0,47,-99.99,,,-99.99,,2013-02-20 17:01:00,
2013-02-20 11:11:00,16.0,-1.0,-100.00,SSW,195,7.0,16.0,47,-99.99,,,-99.99,,2013-02-20 17:11:00,
2013-02-20 11:42:00,19.0,-1.0,-100.00,South,180,7.0,13.0,41,-99.99,,,-99.99,,2013-02-20 17:42:00,
2013-02-20 11:52:00,19.0,-1.0,-100.00,South,180,7.0,13.0,41,-99.99,,,-99.99,,2013-02-20 17:52:00,
2013-02-20 12:02:00,19.0,-1.0,-100.00,South,180,7.0,13.0,41,-99.99,,,-99.99,,2013-02-20 18:02:00,
2013-02-20 12:11:00,19.0,-1.0,-100.00,South,180,7.0,13.0,41,-99.99,,,-99.99,,2013-02-20 18:11:00,
2013-02-20 12:42:00,21.0,-2.0,-100.00,SW,215,6.0,14.0,36,-99.99,,,-99.99,,2013-02-20 18:42:00,
2013-02-20 12:52:00,21.0,-2.0,-100.00,SW,215,6.0,14.0,36,-99.99,,,-99.99,,2013-02-20 18:52:00,
2013-02-20 13:42:00,22.0,-3.0,-100.00,SW,215,7.0,13.0,33,-99.99,,,-99.99,,2013-02-20 19:42:00,
2013-02-20 13:52:00,22.0,-3.0,-100.00,SW,215,7.0,13.0,33,-99.99,,,-99.99,,2013-02-20 19:52:00,
2013-02-20 15:42:00,24.0,-4.0,-100.00,SSW,210,6.0,12.0,29,-99.99,,,-99.99,,2013-02-20 21:42:00,
2013-02-20 15:52:00,24.0,-4.0,-100.00,SSW,210,6.0,12.0,29,-99.99,,,-99.99,,2013-02-20 21:52:00,
2013-02-20 16:43:00,23.0,-4.0,-100.00,SSE,160,4.0,14.0,30,-99.99,,,-99.99,,2013-02-20 22:43:00,
2013-02-20 16:52:00,23.0,-4.0,-100.00,SSE,160,4.0,14.0,30,-99.99,,,-99.99,,2013-02-20 22:52:00,
2013-02-20 17:42:00,22.0,-5.0,-100.00,SSW,195,4.0,11.0,31,-99.99,,,-99.99,,2013-02-20 23:42:00,
2013-02-20 17:52:00,22.0,-5.0,-100.00,SSW,195,4.0,11.0,31,-99.99,,,-99.99,,2013-02-20 23:52:00,
2013-02-20 18:42:00,19.0,-5.0,-100.00,SSW,200,2.0,3.0,35,-99.99,,,-99.99,,2013-02-21 00:42:00,
2013-02-20 18:52:00,19.0,-5.0,-100.00,SSW,200,2.0,3.0,35,-99.99,,,-99.99,,2013-02-21 00:52:00,
2013-02-20 19:42:00,18.0,-4.0,-100.00,WSW,245,4.0,8.0,37,-99.99,,,-99.99,,2013-02-21 01:42:00,
2013-02-20 19:52:00,18.0,-4.0,-100.00,WSW,245,4.0,8.0,37,-99.99,,,-99.99,,2013-02-21 01:52:00,
2013-02-20 20:01:00,18.0,-4.0,-100.00,WSW,245,4.0,8.0,37,-99.99,,,-99.99,,2013-02-21 02:01:00,
2013-02-20 21:02:00,17.0,-3.0,-100.00,WSW,245,6.0,12.0,40,-99.99,,,-99.99,,2013-02-21 03:02:00,
2013-02-20 21:42:00,15.0,-2.0,-100.00,WSW,245,6.0,9.0,45,-99.99,,,-99.99,,2013-02-21 03:42:00,
2013-02-20 21:52:00,15.0,-2.0,-100.00,WSW,245,6.0,9.0,45,-99.99,,,-99.99,,2013-02-21 03:52:00,
2013-02-20 22:01:00,15.0,-2.0,-100.00,WSW,245,6.0,9.0,45,-99.99,,,-99.99,,2013-02-21 04:01:00,
2013-02-20 22:11:00,15.0,-2.0,-100.00,WSW,245,6.0,9.0,45,-99.99,,,-99.99,,2013-02-21 04:11:00,
2013-02-20 22:42:00,13.0,-2.0,-100.00,WSW,255,3.0,7.0,52,-99.99,,,-99.99,,2013-02-21 04:42:00,
2013-02-20 22:52:00,13.0,-2.0,-100.00,WSW,255,3.0,7.0,52,-99.99,,,-99.99,,2013-02-21 04:52:00,
2013-02-20 23:02:00,13.0,-2.0,-100.00,WSW,255,3.0,7.0,52,-99.99,,,-99.99,,2013-02-21 05:02:00,
2013-02-20 23:12:00,13.0,-2.0,-100.00,WSW,255,3.0,7.0,52,-99.99,,,-99.99,,2013-02-21 05:12:00,
2013-02-20 23:46:00,11.0,-1.0,-100.00,WSW,255,5.0,7.0,57,-99.99,,,-99.99,,2013-02-21 05:46:00,